Time;durP1;ratioP1;P1;durP2;ratioP2;P2;SDS_P1;SDS_P2;PMS_P1;PMS_P2;Temp;Humidity;BMP_temperature;BMP_pressure;BME280_temperature;BME280_humidity;BME280_pressure;Samples;Min_cycle;Max_cycle;Signal;HPM_P1;HPM_P2
2023/11/09 00:00:12;;;;;;;3.60;1.83;;;;;;;-141.84;87.63;19708.16;4980669;28;20223;-61
2023/11/09 00:02:41;;;;;;;1.77;1.50;;;;;;;-141.84;88.27;19785.38;4983444;28;20476;-60
2023/11/09 00:05:10;;;;;;;2.43;1.53;;;;;;;-141.84;90.02;20147.16;4983514;28;20239;-62
2023/11/09 00:07:39;;;;;;;2.07;1.67;;;;;;;-141.84;90.88;20454.09;4983436;28;20310;-61
2023/11/09 00:10:12;;;;;;;4.43;1.80;;;;;;;-141.84;89.70;20141.06;4983762;28;20318;-61
2023/11/09 00:12:41;;;;;;;1.70;1.50;;;;;;;-141.84;87.16;19689.88;4980171;28;20227;-62
2023/11/09 00:15:10;;;;;;;2.57;1.63;;;;;;;-141.84;85.38;19525.25;4983644;28;20215;-61
2023/11/09 00:17:39;;;;;;;3.90;1.60;;;;;;;-141.84;85.47;19504.94;4969634;28;20231;-61
2023/11/09 00:20:10;;;;;;;2.33;1.30;;;;;;;-141.84;84.51;19443.97;4964053;28;20234;-61
2023/11/09 00:22:39;;;;;;;2.63;1.67;;;;;;;-141.84;82.21;19352.53;4961592;28;20236;-61
2023/11/09 00:25:09;;;;;;;2.00;1.70;;;;;;;-141.84;81.74;19315.94;4962860;28;20734;-61
2023/11/09 00:27:38;;;;;;;1.77;1.40;;;;;;;-141.84;81.89;19309.84;4963748;28;20227;-60
2023/11/09 00:30:08;;;;;;;2.57;1.67;;;;;;;-141.84;83.05;19356.59;4963970;28;20232;-61
2023/11/09 00:32:37;;;;;;;2.17;1.47;;;;;;;-141.84;82.65;19360.66;4958939;28;20336;-60
2023/11/09 00:35:08;;;;;;;1.60;1.50;;;;;;;-141.84;82.97;19372.84;4966080;28;20263;-61
2023/11/09 00:37:38;;;;;;;1.70;1.60;;;;;;;-141.84;82.25;19378.94;4982977;28;20215;-62
2023/11/09 00:40:10;;;;;;;1.60;1.37;;;;;;;-141.84;82.23;19340.31;4982756;28;20658;-61
2023/11/09 00:42:40;;;;;;;2.87;2.10;;;;;;;-141.84;83.21;19403.31;4982148;28;20694;-61
2023/11/09 00:45:09;;;;;;;2.23;2.03;;;;;;;-141.84;81.92;19364.72;4983351;28;20270;-61
2023/11/09 00:47:38;;;;;;;2.20;1.50;;;;;;;-141.84;82.21;19317.97;4982758;28;20750;-61
2023/11/09 00:50:07;;;;;;;1.60;1.40;;;;;;;-141.84;83.11;19380.97;4972321;28;20231;-61
2023/11/09 00:52:35;;;;;;;1.50;1.30;;;;;;;-141.84;84.35;19425.69;4958236;28;20243;-62
2023/11/09 00:55:04;;;;;;;2.17;1.60;;;;;;;-141.84;84.92;19458.19;4964977;28;20652;-61
2023/11/09 00:57:35;;;;;;;1.20;1.10;;;;;;;-141.84;85.43;19500.88;4968789;28;20215;-62
2023/11/09 01:00:04;;;;;;;2.93;1.53;;;;;;;-141.84;85.82;19515.09;4987018;28;20240;-61
2023/11/09 01:02:37;;;;;;;1.53;1.30;;;;;;;-141.84;84.39;19446.00;4978995;28;20243;-61
2023/11/09 01:05:07;;;;;;;1.93;1.30;;;;;;;-141.84;84.59;19435.84;4969296;28;20651;-61
2023/11/09 01:07:36;;;;;;;2.03;1.20;;;;;;;-141.84;84.73;19466.31;4990623;28;20223;-61
2023/11/09 01:10:06;;;;;;;1.37;1.27;;;;;;;-141.84;84.08;19437.88;4986580;28;20233;-60
2023/11/09 01:12:36;;;;;;;2.33;1.20;;;;;;;-141.84;83.02;19399.25;4981778;28;20694;-62
2023/11/09 01:15:05;;;;;;;2.37;1.60;;;;;;;-141.84;80.60;19313.91;4974581;28;20215;-61
2023/11/09 01:17:40;;;;;;;3.07;1.23;;;;;;;-141.84;79.01;19240.75;4973305;28;20322;-61
2023/11/09 01:20:09;;;;;;;1.67;1.40;;;;;;;-141.84;80.83;19305.78;4967361;28;20227;-60
2023/11/09 01:22:38;;;;;;;1.30;1.20;;;;;;;-141.84;80.72;19334.22;4963720;28;20810;-61
2023/11/09 01:25:07;;;;;;;1.43;1.27;;;;;;;-141.84;79.17;19259.03;4997060;28;20273;-62
2023/11/09 01:27:37;;;;;;;2.10;1.37;;;;;;;-141.84;79.38;19273.28;5005641;28;20442;-61
2023/11/09 01:30:05;;;;;;;1.40;1.10;;;;;;;-141.84;78.18;19257.00;5005901;28;20773;-61
2023/11/09 01:32:34;;;;;;;2.90;1.30;;;;;;;-141.84;78.29;19242.78;4985608;28;20239;-61
2023/11/09 01:35:03;;;;;;;2.53;1.40;;;;;;;-141.84;80.16;19277.34;4986254;28;20266;-61
2023/11/09 01:37:31;;;;;;;1.57;1.00;;;;;;;-141.84;81.46;19309.84;4986431;28;20269;-61
2023/11/09 01:40:00;;;;;;;4.20;1.40;;;;;;;-141.84;80.12;19293.59;4986594;28;20219;-61
2023/11/09 01:42:28;;;;;;;1.37;1.23;;;;;;;-141.84;78.75;19242.78;4979094;28;20226;-61
2023/11/09 01:44:58;;;;;;;2.50;1.40;;;;;;;-141.84;78.52;19269.22;4985743;28;20253;-61
2023/11/09 01:47:27;;;;;;;1.47;1.30;;;;;;;-141.84;77.10;19259.03;4986256;28;20318;-62
2023/11/09 01:49:55;;;;;;;1.63;1.10;;;;;;;-141.84;77.58;19271.25;4976239;28;20228;-61
2023/11/09 01:52:24;;;;;;;2.80;1.10;;;;;;;-141.84;77.29;19263.09;4959034;28;20232;-60
2023/11/09 01:54:52;;;;;;;4.87;1.47;;;;;;;-141.84;78.48;19269.22;4976849;28;20231;-62
2023/11/09 01:57:21;;;;;;;2.03;1.20;;;;;;;-141.84;78.93;19259.03;4986594;28;20250;-61
2023/11/09 01:59:52;;;;;;;1.80;1.40;;;;;;;-141.84;76.96;19263.09;4985580;28;20231;-61
2023/11/09 02:02:22;;;;;;;2.10;1.50;;;;;;;-141.84;75.48;19281.41;4978412;28;20315;-62
2023/11/09 02:04:51;;;;;;;1.93;1.20;;;;;;;-141.84;74.38;19269.22;4969928;28;20250;-60
2023/11/09 02:07:20;;;;;;;1.27;1.17;;;;;;;-141.84;75.54;19214.34;4965229;28;20273;-61
2023/11/09 02:09:49;;;;;;;2.53;1.10;;;;;;;-141.84;75.43;19240.75;4966067;28;20282;-61
2023/11/09 02:12:18;;;;;;;2.27;1.47;;;;;;;-141.84;74.30;19232.63;4961581;28;20303;-61
2023/11/09 02:14:46;;;;;;;2.23;1.40;;;;;;;-141.84;74.90;19214.34;4984819;28;20706;-61
2023/11/09 02:17:15;;;;;;;1.47;1.30;;;;;;;-141.84;74.84;19261.06;4975281;28;20291;-60
2023/11/09 02:19:45;;;;;;;1.60;1.40;;;;;;;-141.84;75.15;19218.41;4965627;28;20235;-61
2023/11/09 02:22:14;;;;;;;1.63;1.40;;;;;;;-141.84;74.73;19224.50;4958738;28;20260;-61
2023/11/09 02:24:47;;;;;;;2.63;1.30;;;;;;;-141.84;75.03;19218.41;4966404;28;20320;-61
2023/11/09 02:27:15;;;;;;;1.50;1.33;;;;;;;-141.84;73.53;19230.59;4966461;28;20215;-60
2023/11/09 02:29:44;;;;;;;3.20;1.60;;;;;;;-141.84;73.94;19192.00;4984537;28;20245;-61
2023/11/09 02:32:12;;;;;;;3.47;1.30;;;;;;;-141.84;72.44;19232.63;4981447;28;20310;-61
2023/11/09 02:34:40;;;;;;;2.10;1.60;;;;;;;-141.84;73.13;19263.09;4984564;28;20269;-61
2023/11/09 02:37:10;;;;;;;1.43;1.20;;;;;;;-141.84;73.25;19248.88;4984898;28;20318;-61
2023/11/09 02:39:52;;;;;;;1.83;1.40;;;;;;;-141.84;74.04;19224.50;4985191;28;20695;-62
2023/11/09 02:42:22;;;;;;;2.60;1.20;;;;;;;-141.84;72.83;19234.66;4978370;28;20409;-61
2023/11/09 02:44:50;;;;;;;2.00;1.30;;;;;;;-141.84;72.27;19234.66;4984541;28;20806;-60
2023/11/09 02:47:19;;;;;;;2.30;1.27;;;;;;;-141.84;72.55;19208.25;4984834;28;20647;-60
2023/11/09 02:49:48;;;;;;;2.17;1.50;;;;;;;-141.84;72.36;19224.50;4976089;28;20243;-60
2023/11/09 02:52:17;;;;;;;2.40;1.47;;;;;;;-141.84;72.76;19250.91;4957848;28;20278;-60
2023/11/09 02:54:45;;;;;;;2.50;1.30;;;;;;;-141.84;72.96;19234.66;4965320;28;20204;-62
2023/11/09 02:57:16;;;;;;;1.60;1.40;;;;;;;-141.84;73.07;19226.53;4966067;28;20575;-61
2023/11/09 02:59:44;;;;;;;1.90;1.60;;;;;;;-141.84;73.43;19240.75;4965196;28;20465;-60
2023/11/09 03:02:13;;;;;;;1.33;1.23;;;;;;;-141.84;72.83;19246.84;4957688;28;20235;-62
2023/11/09 03:04:42;;;;;;;2.17;1.50;;;;;;;-141.84;72.97;19236.69;4979017;28;20258;-61
2023/11/09 03:07:11;;;;;;;2.67;1.37;;;;;;;-141.84;74.60;19244.81;4984465;28;20278;-60
2023/11/09 03:09:39;;;;;;;1.50;1.40;;;;;;;-141.84;74.51;19212.31;4985005;28;20705;-61
2023/11/09 03:12:08;;;;;;;1.90;1.50;;;;;;;-141.84;72.86;19226.53;4985228;28;20243;-60
2023/11/09 03:14:39;;;;;;;2.03;1.40;;;;;;;-141.84;74.13;19222.47;4979364;28;20314;-61
2023/11/09 03:17:09;;;;;;;3.23;1.40;;;;;;;-141.84;74.34;19228.56;4974969;28;20749;-61
2023/11/09 03:19:39;;;;;;;1.90;1.40;;;;;;;-141.84;75.38;19236.69;4964588;28;20228;-61
2023/11/09 03:22:11;;;;;;;2.00;1.30;;;;;;;-141.84;76.25;19254.97;4964789;28;20234;-61
2023/11/09 03:24:41;;;;;;;2.30;1.50;;;;;;;-141.84;75.95;19214.34;4973814;28;20223;-61
2023/11/09 03:27:10;;;;;;;2.20;1.60;;;;;;;-141.84;76.68;19181.81;4985028;28;20211;-62
2023/11/09 03:29:40;;;;;;;1.93;1.70;;;;;;;-141.84;77.31;19244.81;4983423;28;20282;-61
2023/11/09 03:32:09;;;;;;;2.40;1.40;;;;;;;-141.84;76.86;19263.09;4983854;28;20772;-61
2023/11/09 03:34:38;;;;;;;2.23;1.50;;;;;;;-141.84;76.03;19226.53;4980760;28;20313;-62
2023/11/09 03:37:07;;;;;;;4.00;1.60;;;;;;;-141.84;75.40;19204.19;4983588;28;20219;-61
2023/11/09 03:39:36;;;;;;;2.07;1.57;;;;;;;-141.84;77.40;19228.56;4983847;28;20204;-61
2023/11/09 03:42:05;;;;;;;2.53;1.50;;;;;;;-141.84;76.88;19234.66;4983600;28;20690;-62
2023/11/09 03:44:35;;;;;;;3.10;1.87;;;;;;;-141.84;77.18;19212.31;4968309;28;20337;-61
2023/11/09 03:47:05;;;;;;;2.97;1.60;;;;;;;-141.84;76.88;19228.56;4980965;28;20293;-60
2023/11/09 03:49:38;;;;;;;2.97;1.80;;;;;;;-141.84;76.22;19234.66;4978025;28;20283;-61
2023/11/09 03:52:07;;;;;;;3.00;1.60;;;;;;;-141.84;75.35;19212.31;4977675;28;20254;-61
2023/11/09 03:54:35;;;;;;;1.53;1.37;;;;;;;-141.84;74.75;19242.78;4997030;28;20222;-60
2023/11/09 03:57:04;;;;;;;2.80;2.03;;;;;;;-141.84;74.22;19210.28;5004073;28;20542;-61
2023/11/09 03:59:33;;;;;;;1.60;1.50;;;;;;;-141.84;74.64;19206.22;5003120;28;20596;-60
2023/11/09 04:02:04;;;;;;;2.33;1.77;;;;;;;-141.84;74.01;19214.34;5002919;28;20254;-60
2023/11/09 04:04:32;;;;;;;3.40;1.60;;;;;;;-141.84;72.11;19208.25;4991380;28;23115;-61
2023/11/09 04:07:01;;;;;;;1.97;1.47;;;;;;;-141.84;71.36;19228.56;5002702;28;20334;-61
2023/11/09 04:09:29;;;;;;;4.27;1.80;;;;;;;-141.84;71.41;19212.31;5003240;28;20288;-61
2023/11/09 04:11:58;;;;;;;2.00;1.60;;;;;;;-141.84;71.76;19246.84;5003580;28;20773;-61
2023/11/09 04:14:26;;;;;;;2.53;1.60;;;;;;;-141.84;72.32;19242.78;4976237;28;20289;-60
2023/11/09 04:16:55;;;;;;;2.90;1.90;;;;;;;-141.84;72.92;19220.44;4983343;28;20231;-61
2023/11/09 04:19:25;;;;;;;1.70;1.50;;;;;;;-141.84;71.43;19228.56;4983378;28;20255;-60
2023/11/09 04:21:54;;;;;;;3.37;1.60;;;;;;;-141.84;72.08;19224.50;4982675;28;20237;-60
2023/11/09 04:24:23;;;;;;;2.43;1.60;;;;;;;-141.84;72.96;19236.69;4976776;28;20214;-61
2023/11/09 04:26:52;;;;;;;2.87;1.43;;;;;;;-141.84;72.69;19238.72;4983187;28;20231;-62
2023/11/09 04:29:21;;;;;;;2.07;1.60;;;;;;;-141.84;71.43;19204.19;4982695;28;20239;-61
2023/11/09 04:31:50;;;;;;;1.93;1.70;;;;;;;-141.84;70.50;19214.34;4983279;28;20250;-61
2023/11/09 04:34:19;;;;;;;1.47;1.37;;;;;;;-141.84;70.18;19228.56;4975143;28;20255;-61
2023/11/09 04:36:50;;;;;;;2.87;1.60;;;;;;;-141.84;69.30;19224.50;4982794;28;20298;-61
2023/11/09 04:39:27;;;;;;;2.50;1.63;;;;;;;-141.84;69.41;19232.63;4983456;28;20211;-61
2023/11/09 04:41:57;;;;;;;2.37;1.40;;;;;;;-141.84;69.71;19216.38;4982404;28;20722;-61
2023/11/09 04:44:28;;;;;;;2.83;1.50;;;;;;;-141.84;69.05;19228.56;4975473;28;20333;-62
2023/11/09 04:46:57;;;;;;;1.90;1.70;;;;;;;-141.84;68.66;19228.56;4982957;28;20317;-61
2023/11/09 04:49:27;;;;;;;1.63;1.40;;;;;;;-141.84;68.30;19220.44;4977013;28;20599;-61
2023/11/09 04:52:04;;;;;;;2.03;1.50;;;;;;;-141.84;68.66;19192.00;4963072;28;20264;-62
2023/11/09 04:54:45;;;;;;;2.17;1.50;;;;;;;-141.84;69.11;19242.78;4955742;28;20215;-60
2023/11/09 05:08:19;;;;;;;3.20;1.73;;;;;;;-141.84;66.97;19236.69;4975379;28;20725;-61
2023/11/09 05:10:48;;;;;;;2.40;1.60;;;;;;;-141.84;67.86;19204.19;4983141;28;20395;-62
2023/11/09 05:13:16;;;;;;;5.13;2.20;;;;;;;-141.84;67.16;19226.53;4982745;28;20314;-60
2023/11/09 05:15:46;;;;;;;2.20;1.57;;;;;;;-141.84;66.66;19246.84;4982605;28;20211;-61
2023/11/09 05:18:16;;;;;;;3.33;1.87;;;;;;;-141.84;66.66;19212.31;4958236;28;20303;-63
2023/11/09 05:20:45;;;;;;;1.60;1.33;;;;;;;-141.84;67.88;19216.38;4963150;28;20803;-62
2023/11/09 05:23:13;;;;;;;3.37;1.63;;;;;;;-141.84;67.14;19204.19;4975471;28;20265;-61
2023/11/09 05:25:43;;;;;;;3.20;2.40;;;;;;;-141.84;67.11;19242.78;4982222;28;20237;-61
2023/11/09 05:28:12;;;;;;;5.43;4.63;;;;;;;-141.84;67.98;19226.53;4980294;28;20306;-61
2023/11/09 05:30:41;;;;;;;2.40;2.07;;;;;;;-141.84;67.07;19210.28;4982497;28;20662;-62
2023/11/09 05:33:10;;;;;;;2.90;1.60;;;;;;;-141.84;67.33;19220.44;4983507;28;20215;-61
2023/11/09 05:35:42;;;;;;;2.37;1.40;;;;;;;-141.84;67.40;19236.69;4982833;28;20318;-60
2023/11/09 05:38:10;;;;;;;2.17;1.40;;;;;;;-141.84;66.68;19183.84;4982155;28;20282;-61
2023/11/09 05:40:39;;;;;;;3.43;1.90;;;;;;;-141.84;65.63;19236.69;4971894;28;20318;-61
2023/11/09 05:43:11;;;;;;;2.37;1.63;;;;;;;-141.84;65.58;19196.06;4985876;28;20223;-61
2023/11/09 05:45:39;;;;;;;2.20;1.43;;;;;;;-141.84;65.09;19236.69;4985805;28;20318;-62
2023/11/09 05:48:08;;;;;;;1.60;1.50;;;;;;;-141.84;65.25;19224.50;4986654;28;20717;-61
2023/11/09 05:50:36;;;;;;;4.20;1.73;;;;;;;-141.84;65.07;19232.63;4980094;28;20231;-61
2023/11/09 05:53:06;;;;;;;1.93;1.63;;;;;;;-141.84;65.30;19240.75;4984684;28;20799;-61
2023/11/09 05:55:34;;;;;;;2.37;1.80;;;;;;;-141.84;64.95;19216.38;4989543;28;20322;-61
2023/11/09 05:58:03;;;;;;;2.40;1.60;;;;;;;-141.84;64.80;19200.13;4985192;28;20773;-61
2023/11/09 06:00:33;;;;;;;1.93;1.67;;;;;;;-141.84;64.82;19236.69;4992492;28;20429;-61
2023/11/09 06:03:02;;;;;;;3.30;1.60;;;;;;;-141.84;64.65;19234.66;5006007;28;20768;-61
2023/11/09 06:05:31;;;;;;;2.60;1.77;;;;;;;-141.84;65.29;19226.53;5005265;28;20234;-61
2023/11/09 06:08:00;;;;;;;1.60;1.50;;;;;;;-141.84;64.94;19202.16;5004939;28;20697;-61
2023/11/09 06:10:29;;;;;;;2.63;1.70;;;;;;;-141.84;64.90;19218.41;4996922;28;20297;-61
2023/11/09 06:12:58;;;;;;;2.07;1.70;;;;;;;-141.84;64.96;19216.38;4988249;28;20235;-61
2023/11/09 06:15:29;;;;;;;1.80;1.60;;;;;;;-141.84;65.15;19230.59;4985750;28;20290;-61
2023/11/09 06:17:59;;;;;;;1.90;1.53;;;;;;;-141.84;64.85;19222.47;4969294;28;20747;-60
2023/11/09 06:20:30;;;;;;;1.90;1.70;;;;;;;-141.84;65.03;19189.97;4977704;28;20694;-61
2023/11/09 06:22:58;;;;;;;2.23;1.77;;;;;;;-141.84;65.07;19214.34;4984873;28;20338;-61
2023/11/09 06:25:26;;;;;;;2.30;1.83;;;;;;;-141.84;66.05;19210.28;4984671;28;20310;-61
2023/11/09 06:27:55;;;;;;;1.90;1.50;;;;;;;-141.84;66.50;19187.91;4984794;28;20310;-61
2023/11/09 06:30:29;;;;;;;2.13;1.87;;;;;;;-141.84;66.91;19194.03;4977693;28;20247;-62
2023/11/09 06:32:59;;;;;;;2.87;1.70;;;;;;;-141.84;65.02;19198.09;4985229;28;20227;-60
2023/11/09 06:35:29;;;;;;;1.90;1.70;;;;;;;-141.84;64.67;19226.53;4985003;28;20323;-60
2023/11/09 06:37:57;;;;;;;4.43;1.87;;;;;;;-141.84;65.70;19216.38;4984782;28;20314;-62
2023/11/09 06:40:30;;;;;;;4.13;1.80;;;;;;;-141.84;64.75;19192.00;4978663;28;20309;-61
2023/11/09 06:42:59;;;;;;;2.30;1.77;;;;;;;-141.84;64.62;19212.31;4988347;28;20310;-61
2023/11/09 06:45:27;;;;;;;2.37;2.07;;;;;;;-141.84;62.98;19214.34;4996824;28;20262;-61
2023/11/09 06:47:57;;;;;;;1.90;1.60;;;;;;;-141.84;62.46;19254.97;5004467;28;20674;-61
2023/11/09 06:50:29;;;;;;;4.03;1.50;;;;;;;-141.84;62.75;19224.50;4996391;28;20230;-62
2023/11/09 06:52:57;;;;;;;2.50;1.90;;;;;;;-141.84;62.13;19259.03;4996073;28;20266;-62
2023/11/09 06:55:28;;;;;;;2.03;1.73;;;;;;;-141.84;63.17;19259.03;4991778;28;20227;-61
2023/11/09 06:57:57;;;;;;;1.70;1.60;;;;;;;-141.84;63.73;19222.47;4984168;28;20239;-64
2023/11/09 07:00:26;;;;;;;1.90;1.53;;;;;;;-141.84;62.28;19240.75;4990562;28;20211;-61
2023/11/09 07:02:57;;;;;;;1.77;1.53;;;;;;;-141.84;63.23;19220.44;5004311;28;20238;-61
2023/11/09 07:05:27;;;;;;;1.60;1.37;;;;;;;-141.84;63.29;19236.69;5004148;28;20237;-61
2023/11/09 07:07:56;;;;;;;2.57;1.67;;;;;;;-141.84;64.37;19232.63;5003488;28;20250;-62
2023/11/09 07:10:25;;;;;;;2.97;1.70;;;;;;;-141.84;62.56;19248.88;4996138;28;20234;-62
2023/11/09 07:12:56;;;;;;;2.30;1.60;;;;;;;-141.84;63.03;19257.00;4988256;28;20230;-62
2023/11/09 07:15:26;;;;;;;2.60;1.40;;;;;;;-141.84;64.15;19234.66;4984639;28;20297;-62
2023/11/09 07:17:55;;;;;;;1.80;1.47;;;;;;;-141.84;63.84;19246.84;4968947;28;20703;-62
2023/11/09 07:20:24;;;;;;;2.03;1.47;;;;;;;-141.84;63.54;19259.03;4957190;28;20715;-60
2023/11/09 07:22:56;;;;;;;2.00;1.50;;;;;;;-141.84;61.77;19240.75;4974021;28;20282;-61
2023/11/09 07:25:26;;;;;;;2.90;1.50;;;;;;;-141.84;61.73;19277.34;4983972;28;20297;-61
2023/11/09 07:27:54;;;;;;;2.10;1.43;;;;;;;-141.84;62.37;19277.34;4983646;28;20589;-61
2023/11/09 07:30:28;;;;;;;1.80;1.43;;;;;;;-141.84;60.85;19279.38;4977060;28;20750;-61
2023/11/09 07:32:56;;;;;;;2.77;1.40;;;;;;;-141.84;62.80;19263.09;4984066;28;20322;-61
2023/11/09 07:35:25;;;;;;;3.67;1.80;;;;;;;-141.84;62.00;19293.59;4983595;28;20231;-61
2023/11/09 07:37:55;;;;;;;2.27;1.70;;;;;;;-141.84;61.46;19281.41;4990544;28;20233;-61
2023/11/09 07:40:27;;;;;;;1.67;1.57;;;;;;;-141.84;61.23;19295.63;4976901;28;20227;-61
2023/11/09 07:42:57;;;;;;;1.63;1.53;;;;;;;-141.84;60.90;19287.50;4982826;28;20249;-61
2023/11/09 07:45:27;;;;;;;1.57;1.43;;;;;;;-141.84;62.87;19281.41;4986534;28;20265;-61
2023/11/09 07:47:56;;;;;;;2.03;1.40;;;;;;;-141.84;60.23;19305.78;4984563;28;20322;-60
2023/11/09 07:50:24;;;;;;;1.57;1.47;;;;;;;-141.84;58.74;19305.78;4976215;28;20646;-61
2023/11/09 07:52:54;;;;;;;2.20;1.70;;;;;;;-141.84;58.47;19315.94;4984231;28;20817;-61
2023/11/09 07:55:23;;;;;;;3.17;1.57;;;;;;;-141.84;57.93;19336.25;4984824;28;20254;-61
2023/11/09 07:57:51;;;;;;;1.63;1.53;;;;;;;-141.84;57.95;19342.34;4989316;28;20652;-62
2023/11/09 08:00:20;;;;;;;2.83;1.67;;;;;;;-141.84;56.75;19346.44;4977253;28;20283;-60
2023/11/09 08:02:48;;;;;;;1.30;1.20;;;;;;;-141.84;56.25;19356.59;4984782;28;20238;-61
2023/11/09 08:05:18;;;;;;;5.10;1.40;;;;;;;-141.84;55.24;19385.03;4982662;28;20278;-61
2023/11/09 08:07:47;;;;;;;2.87;1.57;;;;;;;-141.84;53.73;19393.16;4983770;28;20281;-61
2023/11/09 08:10:18;;;;;;;2.10;1.50;;;;;;;-141.84;52.22;19395.19;4975639;28;20235;-61
2023/11/09 08:12:47;;;;;;;3.47;1.37;;;;;;;-141.84;52.95;19378.94;4982763;28;20235;-62
2023/11/09 08:15:18;;;;;;;1.77;1.37;;;;;;;-141.84;54.17;19376.91;4983698;28;20294;-62
2023/11/09 08:17:47;;;;;;;1.90;1.50;;;;;;;-141.84;53.17;19372.84;4968972;28;20292;-61
2023/11/09 08:20:16;;;;;;;1.80;1.33;;;;;;;-141.84;52.48;19405.34;4975162;28;20726;-61
2023/11/09 08:22:46;;;;;;;2.87;1.30;;;;;;;-141.84;53.41;19378.94;4983057;28;20231;-61
2023/11/09 08:25:18;;;;;;;2.53;1.60;;;;;;;-141.84;52.15;19399.25;4982982;28;20235;-60
2023/11/09 08:27:47;;;;;;;1.63;1.33;;;;;;;-141.84;52.61;19395.19;4982837;28;20218;-61
2023/11/09 08:30:16;;;;;;;3.30;2.07;;;;;;;-141.84;51.67;19366.75;4976159;28;20207;-62
2023/11/09 08:32:47;;;;;;;2.43;1.40;;;;;;;-141.84;52.40;19399.25;4983300;28;20231;-61
2023/11/09 08:35:17;;;;;;;2.17;1.60;;;;;;;-141.84;51.64;19435.84;4983585;28;20552;-61
2023/11/09 08:37:46;;;;;;;2.03;1.43;;;;;;;-141.84;51.45;19452.09;4983187;28;20219;-61
2023/11/09 08:40:27;;;;;;;1.53;1.30;;;;;;;-141.84;52.58;19443.97;4976108;28;20326;-60
2023/11/09 08:42:57;;;;;;;3.00;1.43;;;;;;;-141.84;50.72;19433.81;4982552;28;20227;-61
2023/11/09 08:45:28;;;;;;;1.57;1.47;;;;;;;-141.84;51.73;19413.47;4982981;28;20239;-61
2023/11/09 08:47:58;;;;;;;1.83;1.50;;;;;;;-141.84;51.98;19419.59;4983480;28;20227;-61
2023/11/09 08:50:28;;;;;;;4.27;1.57;;;;;;;-141.84;51.38;19431.78;4961306;28;20236;-61
2023/11/09 08:52:58;;;;;;;3.00;1.67;;;;;;;-141.84;51.73;19425.69;4963995;28;20250;-61
2023/11/09 08:55:49;;;;;;;2.80;1.40;;;;;;;-141.84;52.66;19397.22;4964002;28;20248;-61
2023/11/09 08:58:17;;;;;;;3.13;1.40;;;;;;;-141.84;52.51;19431.78;4956074;28;20240;-62
2023/11/09 09:00:46;;;;;;;1.80;1.33;;;;;;;-141.84;52.75;19407.38;4963066;28;20223;-61
2023/11/09 09:03:14;;;;;;;1.93;1.20;;;;;;;-141.84;52.35;19397.22;4964076;28;20247;-60
2023/11/09 09:05:43;;;;;;;1.73;1.20;;;;;;;-141.84;53.77;19411.44;4963663;28;20327;-61
2023/11/09 09:08:11;;;;;;;1.77;1.20;;;;;;;-141.84;51.74;19484.59;4974175;28;20231;-60
2023/11/09 09:10:42;;;;;;;1.80;1.50;;;;;;;-141.84;52.97;19423.66;4983181;28;20235;-61
2023/11/09 09:13:12;;;;;;;2.03;1.50;;;;;;;-141.84;53.25;19441.94;4982915;28;20310;-60
2023/11/09 09:15:45;;;;;;;1.93;1.37;;;;;;;-141.84;51.54;19391.13;4970981;28;20215;-61
2023/11/09 09:18:13;;;;;;;1.97;1.77;;;;;;;-141.84;52.22;19454.13;4959599;28;20223;-60
2023/11/09 09:20:42;;;;;;;2.00;1.40;;;;;;;-141.84;50.40;19439.91;4966310;28;20236;-62
2023/11/09 09:23:10;;;;;;;2.73;1.53;;;;;;;-141.84;50.90;19437.88;4966827;28;20712;-60
2023/11/09 09:25:40;;;;;;;2.20;1.80;;;;;;;-141.84;50.54;19439.91;4966858;28;20299;-61
2023/11/09 09:28:10;;;;;;;2.77;1.97;;;;;;;-141.84;50.73;19446.00;4966755;28;20247;-61
2023/11/09 09:30:38;;;;;;;3.90;1.70;;;;;;;-141.84;50.20;19452.09;4964025;28;20204;-62
2023/11/09 09:33:08;;;;;;;1.60;1.40;;;;;;;-141.84;50.35;19456.16;4967259;28;20294;-61
2023/11/09 09:35:37;;;;;;;2.40;1.47;;;;;;;-141.84;49.00;19441.94;4966347;28;20242;-62
2023/11/09 09:38:15;;;;;;;1.73;1.47;;;;;;;-141.84;49.11;19486.66;4972319;28;20226;-62
2023/11/09 09:40:47;;;;;;;1.70;1.60;;;;;;;-141.84;48.48;19470.38;4986017;28;20243;-61
2023/11/09 09:43:22;;;;;;;2.47;1.50;;;;;;;-141.84;48.68;19486.66;4985207;28;20223;-61
2023/11/09 09:45:57;;;;;;;2.37;1.40;;;;;;;-141.84;48.43;19531.34;4985233;28;20579;-61
2023/11/09 09:48:28;;;;;;;3.30;1.63;;;;;;;-141.84;48.38;19448.03;4979133;28;20218;-61
2023/11/09 09:51:00;;;;;;;2.13;1.57;;;;;;;-141.84;47.97;19517.13;4985848;28;20227;-61
2023/11/09 09:53:30;;;;;;;2.97;1.50;;;;;;;-141.84;47.53;19523.22;4986151;28;20277;-62
2023/11/09 09:56:03;;;;;;;1.90;1.60;;;;;;;-141.84;47.85;19517.13;4985817;28;20227;-61
2023/11/09 09:58:33;;;;;;;2.17;1.87;;;;;;;-141.84;47.87;19529.31;4978805;28;20309;-60
2023/11/09 10:01:04;;;;;;;2.17;1.60;;;;;;;-141.84;47.73;19496.81;4985945;28;20231;-61
2023/11/09 10:03:35;;;;;;;2.10;1.50;;;;;;;-141.84;48.42;19511.03;4985369;28;20294;-60
2023/11/09 10:06:06;;;;;;;2.40;1.40;;;;;;;-141.84;47.98;19535.41;4985897;28;20222;-61
2023/11/09 10:08:36;;;;;;;1.43;1.33;;;;;;;-141.84;47.72;19533.38;4977770;28;20715;-61
2023/11/09 10:11:05;;;;;;;4.00;1.47;;;;;;;-141.84;47.62;19557.78;4985466;28;20572;-61
2023/11/09 10:13:35;;;;;;;3.17;1.63;;;;;;;-141.84;47.46;19567.94;4985304;28;20310;-60
2023/11/09 10:16:05;;;;;;;2.20;1.60;;;;;;;-141.84;47.41;19529.31;4984775;28;20227;-61
2023/11/09 10:18:33;;;;;;;2.17;1.37;;;;;;;-141.84;47.33;19576.06;4959092;28;20302;-62
2023/11/09 10:21:03;;;;;;;2.77;1.70;;;;;;;-141.84;46.59;19580.13;4975485;28;20243;-61
2023/11/09 10:23:32;;;;;;;3.27;1.60;;;;;;;-141.84;46.75;19598.41;4985300;28;20267;-61
2023/11/09 10:26:02;;;;;;;2.53;1.30;;;;;;;-141.84;47.05;19602.47;4985754;28;20281;-61
2023/11/09 10:28:33;;;;;;;2.40;1.50;;;;;;;-141.84;46.90;19610.59;4977193;28;20247;-61
2023/11/09 10:31:11;;;;;;;2.90;1.40;;;;;;;-141.84;46.55;19586.22;4985377;28;20314;-61
2023/11/09 10:33:40;;;;;;;3.53;1.50;;;;;;;-141.84;46.41;19594.34;4985303;28;20743;-62
2023/11/09 10:36:09;;;;;;;2.80;1.40;;;;;;;-141.84;47.31;19569.97;4985430;28;20239;-61
2023/11/09 10:38:40;;;;;;;2.20;1.50;;;;;;;-141.84;47.12;19557.78;4966438;28;20326;-62
2023/11/09 10:41:08;;;;;;;3.80;1.73;;;;;;;-141.84;47.04;19602.47;4965154;28;20778;-61
2023/11/09 10:43:59;;;;;;;4.37;1.60;;;;;;;-141.84;47.09;19569.97;4981031;28;20242;-61
2023/11/09 10:46:37;;;;;;;2.73;1.80;;;;;;;-141.84;47.33;19580.13;4977371;28;20720;-61
2023/11/09 10:49:07;;;;;;;2.23;1.40;;;;;;;-141.84;47.82;19574.03;4984873;28;20305;-61
2023/11/09 10:51:39;;;;;;;3.80;1.70;;;;;;;-141.84;47.42;19578.09;4985204;28;20238;-62
2023/11/09 10:54:10;;;;;;;3.23;1.97;;;;;;;-141.84;47.85;19553.72;4985365;28;20223;-62
2023/11/09 10:56:39;;;;;;;4.10;1.77;;;;;;;-141.84;48.15;19561.84;4982483;28;20317;-60
2023/11/09 10:59:09;;;;;;;2.73;1.37;;;;;;;-141.84;47.83;19574.03;4984470;28;20250;-61
2023/11/09 11:01:42;;;;;;;4.87;1.83;;;;;;;-141.84;47.91;19588.25;4965833;28;20232;-60
2023/11/09 11:04:14;;;;;;;1.95;1.50;;;;;;;-141.84;47.19;19590.28;4965187;28;20666;-61
2023/11/09 11:06:56;;;;;;;2.22;1.70;;;;;;;-141.84;48.36;19572.00;4965128;28;20679;-62
2023/11/09 11:09:27;;;;;;;2.50;1.40;;;;;;;-141.84;48.24;19610.59;4985114;28;20207;-61
2023/11/09 11:12:00;;;;;;;3.95;2.40;;;;;;;-141.84;47.50;19632.97;4984333;28;20723;-62
2023/11/09 11:14:33;;;;;;;2.75;1.70;;;;;;;-141.84;47.11;19608.56;4976310;28;20314;-61
2023/11/09 11:17:28;;;;;;;2.47;1.70;;;;;;;-141.84;47.26;19606.53;4983808;28;20266;-62
2023/11/09 11:20:33;;;;;;;2.20;1.60;;;;;;;-141.84;47.76;19580.13;4984545;28;20314;-61
2023/11/09 11:23:24;;;;;;;1.27;1.17;;;;;;;-141.84;47.96;19586.22;4983999;28;20231;-61
2023/11/09 11:26:04;;;;;;;2.47;1.70;;;;;;;-141.84;47.94;19614.66;4984059;28;20259;-62
2023/11/09 11:28:38;;;;;;;2.43;1.60;;;;;;;-141.84;48.42;19596.38;4977676;28;20242;-62
2023/11/09 11:31:20;;;;;;;1.92;1.60;;;;;;;-141.84;47.39;19586.22;4984315;28;20223;-62
2023/11/09 11:33:51;;;;;;;1.88;1.58;;;;;;;-141.84;47.67;19614.66;4983726;28;20695;-60
2023/11/09 11:36:26;;;;;;;3.70;1.57;;;;;;;-141.84;47.67;19606.53;4976331;28;20291;-61
2023/11/09 11:39:35;;;;;;;3.03;1.60;;;;;;;-141.84;46.95;19620.78;4964967;28;20239;-61
2023/11/09 11:42:17;;;;;;;2.50;1.48;;;;;;;-141.84;46.72;19637.03;4964751;28;20671;-61